Time;durP1;ratioP1;P1;durP2;ratioP2;P2;SDS_P1;SDS_P2;PMS_P1;PMS_P2;Temp;Humidity;BMP_temperature;BMP_pressure;BME280_temperature;BME280_humidity;BME280_pressure;Samples;Min_cycle;Max_cycle;Signal;HPM_P1;HPM_P2
2022/01/16 00:04:06;;;;;;;55.25;23.40;;;;;;;-149.78;100.00;50579.00;5067971;28;20101;-62
2022/01/16 00:04:53;;;;;;;54.80;24.42;;;;;;;-149.78;100.00;50635.72;5072762;28;20051;-62
2022/01/16 00:07:19;;;;;;;51.72;21.85;;;;;;;-149.78;100.00;50606.41;5073951;28;20033;-62
2022/01/16 00:09:44;;;;;;;55.25;23.63;;;;;;;-149.78;100.00;50596.63;5067530;28;20028;-62
2022/01/16 00:12:11;;;;;;;53.33;22.95;;;;;;;-149.78;100.00;50588.78;5070431;28;20188;-62
2022/01/16 00:14:36;;;;;;;54.45;23.15;;;;;;;-149.78;100.00;50627.91;5054377;28;20037;-62
2022/01/16 00:17:04;;;;;;;48.97;21.35;;;;;;;-149.78;100.00;50577.06;5053917;28;20037;-63
2022/01/16 00:19:30;;;;;;;49.78;22.40;;;;;;;-149.78;100.00;50624.00;5053821;28;20040;-63
2022/01/16 00:21:57;;;;;;;49.20;21.73;;;;;;;-149.78;100.00;50584.88;5057835;28;20048;-63
2022/01/16 00:24:23;;;;;;;52.95;24.38;;;;;;;-149.78;100.00;50584.88;5062006;28;20032;-62
2022/01/16 00:26:49;;;;;;;54.75;23.17;;;;;;;-149.78;100.00;50557.50;5058000;28;20183;-63
2022/01/16 00:29:15;;;;;;;55.10;24.08;;;;;;;-149.78;100.00;50577.06;5068668;28;20044;-63
2022/01/16 00:31:42;;;;;;;52.20;21.60;;;;;;;-149.78;100.00;50577.06;5063865;28;20208;-64
2022/01/16 00:34:10;;;;;;;47.25;20.25;;;;;;;-149.78;100.00;50604.44;5030773;28;20033;-63
2022/01/16 00:36:36;;;;;;;51.72;20.92;;;;;;;-149.78;100.00;50577.06;5046095;28;20107;-63
2022/01/16 00:39:03;;;;;;;50.63;21.88;;;;;;;-149.78;100.00;50577.06;5060112;28;20173;-63
2022/01/16 00:41:31;;;;;;;55.40;22.10;;;;;;;-149.78;100.00;50551.63;5072978;28;20105;-63
2022/01/16 00:43:56;;;;;;;46.83;19.95;;;;;;;-149.78;100.00;50586.84;5073113;28;20163;-63
2022/01/16 00:46:22;;;;;;;47.88;20.73;;;;;;;-149.78;100.00;50600.53;5054990;28;20497;-63
2022/01/16 00:48:48;;;;;;;46.75;20.42;;;;;;;-149.78;100.00;50600.53;5072656;28;20433;-63
2022/01/16 00:51:15;;;;;;;47.80;20.08;;;;;;;-149.78;100.00;50579.00;5072894;28;20043;-63
2022/01/16 00:53:43;;;;;;;45.20;19.70;;;;;;;-149.78;100.00;50590.75;5073285;28;20436;-63
2022/01/16 00:56:09;;;;;;;41.13;19.30;;;;;;;-149.78;100.00;50608.34;5072912;28;20106;-63
2022/01/16 00:58:34;;;;;;;43.13;19.38;;;;;;;-149.78;100.00;50580.97;5072155;28;20045;-63
2022/01/16 01:01:00;;;;;;;41.70;17.95;;;;;;;-149.78;100.00;50608.34;5073048;28;20059;-63
2022/01/16 01:03:26;;;;;;;45.10;18.52;;;;;;;-149.78;100.00;50549.69;5072273;28;20032;-63
2022/01/16 01:05:52;;;;;;;38.05;17.85;;;;;;;-149.78;100.00;50545.75;5072170;28;20126;-63
2022/01/16 01:08:18;;;;;;;44.85;18.48;;;;;;;-149.78;100.00;50592.72;5072890;28;20115;-63
2022/01/16 01:10:47;;;;;;;45.00;20.65;;;;;;;-149.78;100.00;50584.88;5054862;28;20048;-63
2022/01/16 01:13:30;;;;;;;57.92;22.15;;;;;;;-149.78;100.00;50608.34;5072635;28;20024;-63
2022/01/16 01:16:03;;;;;;;53.95;23.23;;;;;;;-149.78;100.00;50577.06;5072969;28;20044;-63
2022/01/16 01:18:33;;;;;;;45.28;21.13;;;;;;;-149.78;100.00;50588.78;5072840;28;20036;-63
2022/01/16 01:21:01;;;;;;;52.72;21.95;;;;;;;-149.78;100.00;50565.31;5072605;28;20043;-62
2022/01/16 01:23:28;;;;;;;54.72;22.20;;;;;;;-149.78;100.00;50631.81;5073012;28;20044;-62
2022/01/16 01:25:53;;;;;;;48.75;21.50;;;;;;;-149.78;100.00;50604.44;5072714;28;20108;-62
2022/01/16 01:28:19;;;;;;;49.55;22.02;;;;;;;-149.78;100.00;50582.94;5072436;28;20834;-63
2022/01/16 01:30:46;;;;;;;52.03;22.05;;;;;;;-149.78;100.00;50563.38;5072589;28;20056;-63
2022/01/16 01:33:13;;;;;;;46.90;20.85;;;;;;;-149.78;100.00;50594.66;5054784;28;20086;-63
2022/01/16 01:35:40;;;;;;;50.35;20.42;;;;;;;-149.78;100.00;50604.44;5072594;28;20041;-63
2022/01/16 01:38:07;;;;;;;51.40;21.60;;;;;;;-149.78;100.00;50594.66;5072700;28;20037;-63
2022/01/16 01:40:34;;;;;;;55.15;22.25;;;;;;;-149.78;100.00;50610.31;5071442;28;20039;-63
2022/01/16 01:51:24;;;;;;;53.30;22.02;;;;;;;-149.78;100.00;50592.72;5071179;28;20032;-62
2022/01/16 01:53:53;;;;;;;51.97;22.20;;;;;;;-149.78;100.00;50618.13;5072495;28;20403;-62
2022/01/16 01:56:21;;;;;;;46.53;21.33;;;;;;;-149.78;100.00;50588.78;5054503;28;20043;-62
2022/01/16 01:58:47;;;;;;;44.25;20.42;;;;;;;-149.78;100.00;50594.66;5072073;28;20040;-62
2022/01/16 02:01:12;;;;;;;41.60;19.90;;;;;;;-149.78;100.00;50596.63;5071761;28;20028;-62
2022/01/16 02:06:18;;;;;;;47.10;19.67;;;;;;;-149.78;100.00;50577.06;5051892;28;20071;-62
2022/01/16 02:08:52;;;;;;;47.75;19.30;;;;;;;-149.78;100.00;50596.63;5060978;28;20454;-63
2022/01/16 02:11:23;;;;;;;50.30;21.10;;;;;;;-149.78;100.00;50612.25;5058169;28;20029;-63
2022/01/16 02:14:05;;;;;;;41.78;18.75;;;;;;;-149.78;100.00;50588.78;5075839;28;20387;-63
2022/01/16 02:35:45;;;;;;;42.40;17.58;;;;;;;-149.78;100.00;50612.25;5074122;28;20032;-63
2022/01/16 02:38:12;;;;;;;40.25;17.75;;;;;;;-149.78;100.00;50530.13;5075012;28;20094;-63
2022/01/16 02:40:43;;;;;;;42.58;17.30;;;;;;;-149.78;100.00;50584.88;5075639;28;20052;-63
2022/01/16 02:43:10;;;;;;;39.00;16.85;;;;;;;-149.78;100.00;50547.72;5075614;28;20174;-63
2022/01/16 02:45:37;;;;;;;38.40;16.55;;;;;;;-149.78;100.00;50575.09;5075328;28;20466;-63
2022/01/16 02:48:07;;;;;;;42.30;17.50;;;;;;;-149.78;100.00;50573.16;5060233;28;20040;-63
2022/01/16 02:50:35;;;;;;;43.20;18.17;;;;;;;-149.78;100.00;50584.88;5055748;28;20108;-62
2022/01/16 02:53:09;;;;;;;35.35;16.85;;;;;;;-149.78;100.00;50577.06;5055192;28;20041;-63
2022/01/16 02:55:40;;;;;;;35.85;16.95;;;;;;;-149.78;100.00;50592.72;5053852;28;20116;-63
2022/01/16 02:58:05;;;;;;;35.35;16.45;;;;;;;-149.78;100.00;50590.75;5055102;28;20523;-62
2022/01/16 03:00:34;;;;;;;41.00;17.17;;;;;;;-149.78;100.00;50588.78;5072940;28;20033;-62
2022/01/16 03:03:00;;;;;;;40.67;17.75;;;;;;;-149.78;100.00;50596.63;5056693;28;20357;-62
2022/01/16 03:05:25;;;;;;;39.03;17.35;;;;;;;-149.78;100.00;50612.25;5074003;28;20116;-62
2022/01/16 03:07:51;;;;;;;40.00;17.45;;;;;;;-149.78;100.00;50596.63;5056643;28;20484;-62
2022/01/16 03:13:12;;;;;;;45.95;18.20;;;;;;;-149.78;100.00;50592.72;5050688;28;20063;-63
2022/01/16 03:15:39;;;;;;;45.13;18.55;;;;;;;-149.78;100.00;50588.78;5074435;28;20044;-63
2022/01/16 03:23:21;;;;;;;44.85;18.65;;;;;;;-149.78;100.00;50557.50;5074119;28;20040;-62
2022/01/16 03:25:49;;;;;;;39.50;17.63;;;;;;;-149.78;100.00;50559.47;5057022;28;20123;-62
2022/01/16 03:28:15;;;;;;;37.88;16.98;;;;;;;-149.78;100.00;50594.66;5074418;28;20539;-62
2022/01/16 03:30:41;;;;;;;45.63;18.90;;;;;;;-149.78;100.00;50616.19;5074484;28;20170;-62
2022/01/16 03:33:06;;;;;;;49.83;19.00;;;;;;;-149.78;100.00;50588.78;5074666;28;20479;-62
2022/01/16 03:35:33;;;;;;;46.08;20.02;;;;;;;-149.78;100.00;50580.97;5056127;28;20037;-62
2022/01/16 03:38:00;;;;;;;44.60;19.02;;;;;;;-149.78;100.00;50588.78;5074341;28;20114;-62
2022/01/16 03:40:26;;;;;;;47.00;19.55;;;;;;;-149.78;100.00;50612.25;5074678;28;20029;-62
2022/01/16 03:42:51;;;;;;;42.75;19.35;;;;;;;-149.78;100.00;50569.22;5074216;28;20032;-62
2022/01/16 03:45:17;;;;;;;42.58;17.52;;;;;;;-149.78;100.00;50612.25;5056434;28;20417;-62
2022/01/16 03:47:43;;;;;;;47.38;19.10;;;;;;;-149.78;100.00;50577.06;5073954;28;20039;-63
2022/01/16 03:50:10;;;;;;;46.85;19.48;;;;;;;-149.78;100.00;50557.50;5074025;28;20094;-62
2022/01/16 03:52:36;;;;;;;48.58;19.58;;;;;;;-149.78;100.00;50573.16;5067947;28;20036;-62
2022/01/16 03:55:03;;;;;;;48.03;20.63;;;;;;;-149.78;100.00;50584.88;5073892;28;20032;-63
2022/01/16 03:57:29;;;;;;;45.67;18.40;;;;;;;-149.78;100.00;50616.19;5073831;28;20059;-63
2022/01/16 03:59:55;;;;;;;47.53;18.77;;;;;;;-149.78;100.00;50577.06;5074230;28;20037;-63
2022/01/16 04:02:21;;;;;;;46.80;18.20;;;;;;;-149.78;100.00;50565.31;5073897;28;20036;-63
2022/01/16 04:04:47;;;;;;;49.65;18.80;;;;;;;-149.78;100.00;50633.78;5072665;28;20487;-63
2022/01/16 04:07:18;;;;;;;44.60;19.38;;;;;;;-149.78;100.00;50590.75;5055377;28;20403;-63
2022/01/16 04:09:44;;;;;;;43.20;18.73;;;;;;;-149.78;100.00;50596.63;5073597;28;20443;-62
2022/01/16 04:12:10;;;;;;;42.88;18.70;;;;;;;-149.78;100.00;50620.09;5074054;28;20089;-62
2022/01/16 04:17:23;;;;;;;42.90;18.85;;;;;;;-149.78;100.00;50602.47;5073678;28;20590;-63
2022/01/16 04:19:50;;;;;;;43.72;18.50;;;;;;;-149.78;100.00;50602.47;5073610;28;20051;-63
2022/01/16 04:22:16;;;;;;;48.60;19.70;;;;;;;-149.78;100.00;50588.78;5064159;28;20456;-63
2022/01/16 04:24:42;;;;;;;46.58;18.58;;;;;;;-149.78;100.00;50580.97;5058785;28;20107;-63
2022/01/16 04:27:12;;;;;;;40.28;18.58;;;;;;;-149.78;100.00;50616.19;5035779;28;20028;-63
2022/01/16 04:29:38;;;;;;;45.67;18.50;;;;;;;-149.78;100.00;50592.72;5053326;28;20098;-63
2022/01/16 04:32:05;;;;;;;44.60;18.20;;;;;;;-149.78;100.00;50553.59;5051167;28;20391;-63
2022/01/16 04:34:30;;;;;;;45.53;18.38;;;;;;;-149.78;100.00;50592.72;5035828;28;20106;-62
2022/01/16 04:36:56;;;;;;;45.30;18.45;;;;;;;-149.78;100.00;50579.00;5065938;28;20495;-63
2022/01/16 04:39:30;;;;;;;46.83;18.00;;;;;;;-149.78;100.00;50596.63;5072875;28;20036;-63
2022/01/16 04:44:40;;;;;;;41.30;18.02;;;;;;;-149.78;100.00;50584.88;5069416;28;20036;-63
2022/01/16 04:47:06;;;;;;;40.47;18.45;;;;;;;-149.78;100.00;50588.78;5072381;28;20044;-63
2022/01/16 04:49:31;;;;;;;40.13;17.13;;;;;;;-149.78;100.00;50596.63;5072765;28;20029;-63
2022/01/16 04:51:57;;;;;;;48.95;19.75;;;;;;;-149.78;100.00;50571.19;5072579;28;20029;-63
2022/01/16 04:54:22;;;;;;;42.33;17.25;;;;;;;-149.78;100.00;50600.53;5073068;28;20403;-63
2022/01/16 04:56:48;;;;;;;43.85;18.10;;;;;;;-149.78;100.00;50579.00;5054662;28;20032;-63
2022/01/16 04:59:14;;;;;;;45.10;17.30;;;;;;;-149.78;100.00;50596.63;5072393;28;20399;-63
2022/01/16 05:01:39;;;;;;;36.83;17.00;;;;;;;-149.78;100.00;50596.63;5065240;28;20040;-63
2022/01/16 05:04:05;;;;;;;35.60;14.77;;;;;;;-149.78;100.00;50584.88;5072862;28;20128;-63
2022/01/16 05:06:30;;;;;;;34.58;14.60;;;;;;;-149.78;100.00;50614.22;5072205;28;20111;-63
2022/01/16 05:08:56;;;;;;;35.80;14.00;;;;;;;-149.78;100.00;50575.09;5072418;28;20386;-63
2022/01/16 05:11:25;;;;;;;31.70;13.65;;;;;;;-149.78;100.00;50604.44;5071897;28;20463;-63
2022/01/16 05:16:37;;;;;;;33.13;12.18;;;;;;;-149.78;100.00;50600.53;5073081;28;20055;-63
2022/01/16 05:19:13;;;;;;;31.40;12.65;;;;;;;-149.78;100.00;50604.44;5050121;28;20473;-63
2022/01/16 05:21:40;;;;;;;24.70;11.65;;;;;;;-149.78;100.00;50600.53;5072652;28;20043;-63
2022/01/16 05:24:11;;;;;;;27.80;12.38;;;;;;;-149.78;100.00;50592.72;5072787;28;20043;-63
2022/01/16 05:26:44;;;;;;;24.90;11.90;;;;;;;-149.78;100.00;50577.06;5072660;28;20756;-63
2022/01/16 05:29:11;;;;;;;27.85;12.65;;;;;;;-149.78;100.00;50588.78;5072728;28;20119;-63
2022/01/16 05:31:37;;;;;;;31.65;13.13;;;;;;;-149.78;100.00;50565.31;5072650;28;20479;-63
2022/01/16 05:34:03;;;;;;;30.58;13.82;;;;;;;-149.78;100.00;50573.16;5072481;28;20094;-63
2022/01/16 05:36:29;;;;;;;31.02;13.52;;;;;;;-149.78;100.00;50580.97;5072543;28;20041;-63
2022/01/16 05:38:55;;;;;;;35.97;14.50;;;;;;;-149.78;100.00;50577.06;5072616;28;20525;-63
2022/01/16 05:41:21;;;;;;;34.45;14.85;;;;;;;-149.78;100.00;50606.41;5072332;28;20036;-63
2022/01/16 05:43:48;;;;;;;34.15;13.55;;;;;;;-149.78;100.00;50592.72;5073153;28;20028;-63
2022/01/16 05:46:15;;;;;;;38.58;15.35;;;;;;;-149.78;100.00;50635.72;5076443;28;20037;-63
2022/01/16 05:48:41;;;;;;;33.85;14.60;;;;;;;-149.78;100.00;50584.88;5076337;28;20093;-63
2022/01/16 05:51:08;;;;;;;32.35;14.23;;;;;;;-149.78;100.00;50600.53;5076479;28;20032;-63
2022/01/16 05:53:33;;;;;;;31.67;13.25;;;;;;;-149.78;100.00;50573.16;5076151;28;20052;-63
2022/01/16 05:55:59;;;;;;;34.15;13.43;;;;;;;-149.78;100.00;50596.63;5058436;28;20044;-63
2022/01/16 05:58:24;;;;;;;29.23;14.18;;;;;;;-149.78;100.00;50586.84;5076468;28;20033;-63
2022/01/16 06:00:50;;;;;;;32.58;15.18;;;;;;;-149.78;100.00;50588.78;5076152;28;20048;-63
2022/01/16 06:03:15;;;;;;;34.40;13.32;;;;;;;-149.78;100.00;50565.31;5076170;28;20041;-63
2022/01/16 06:05:42;;;;;;;37.50;14.35;;;;;;;-149.78;100.00;50580.97;5075382;28;20503;-63
2022/01/16 06:08:11;;;;;;;39.72;14.27;;;;;;;-149.78;100.00;50592.72;5075906;28;20090;-63
2022/01/16 06:10:36;;;;;;;32.00;13.98;;;;;;;-149.78;100.00;50580.97;5076096;28;20399;-63
2022/01/16 06:13:04;;;;;;;29.35;13.68;;;;;;;-149.78;100.00;50588.78;5075914;28;20036;-63
2022/01/16 06:15:30;;;;;;;28.50;14.32;;;;;;;-149.78;100.00;50594.66;5076074;28;20414;-63
2022/01/16 06:17:56;;;;;;;29.30;12.75;;;;;;;-149.78;100.00;50606.41;5075893;28;20641;-63
2022/01/16 06:20:22;;;;;;;27.75;12.55;;;;;;;-149.78;100.00;50612.25;5075690;28;20048;-63
2022/01/16 06:22:48;;;;;;;28.92;13.48;;;;;;;-149.78;100.00;50590.75;5075820;28;20033;-63
2022/01/16 06:25:14;;;;;;;31.45;12.82;;;;;;;-149.78;100.00;50555.53;5076005;28;20044;-63
2022/01/16 06:27:41;;;;;;;29.48;13.55;;;;;;;-149.78;100.00;50596.63;5058103;28;20083;-63
2022/01/16 06:30:09;;;;;;;30.65;14.48;;;;;;;-149.78;100.00;50577.06;5075252;28;20041;-63
2022/01/16 06:32:35;;;;;;;30.42;14.40;;;;;;;-149.78;100.00;50577.06;5075674;28;20118;-63
2022/01/16 06:35:01;;;;;;;29.23;13.40;;;;;;;-149.78;100.00;50549.69;5057350;28;20060;-63
2022/01/16 06:37:26;;;;;;;29.50;13.77;;;;;;;-149.78;100.00;50596.63;5075484;28;20119;-63
2022/01/16 06:39:52;;;;;;;29.73;13.40;;;;;;;-149.78;100.00;50584.88;5075132;28;20047;-65
2022/01/16 06:42:18;;;;;;;30.00;13.50;;;;;;;-149.78;100.00;50573.16;5057150;28;20118;-64
2022/01/16 06:44:43;;;;;;;24.77;12.35;;;;;;;-149.78;100.00;50580.97;5057076;28;20124;-64
2022/01/16 06:47:09;;;;;;;27.27;13.07;;;;;;;-149.78;100.00;50584.88;5074772;28;20049;-64
2022/01/16 06:49:35;;;;;;;28.00;13.10;;;;;;;-149.78;100.00;50584.88;5074606;28;20037;-64
2022/01/16 06:52:01;;;;;;;28.05;12.68;;;;;;;-149.78;100.00;50592.72;5074711;28;20123;-64
2022/01/16 06:54:27;;;;;;;23.42;12.07;;;;;;;-149.78;100.00;50600.53;5074468;28;20047;-63
2022/01/16 06:56:52;;;;;;;25.52;12.60;;;;;;;-149.78;100.00;50561.41;5074933;28;20045;-63
2022/01/16 06:59:18;;;;;;;29.98;13.45;;;;;;;-149.78;100.00;50596.63;5075222;28;20037;-63
2022/01/16 07:01:44;;;;;;;28.70;12.93;;;;;;;-149.78;100.00;50592.72;5060979;28;20103;-63
2022/01/16 07:04:09;;;;;;;33.28;13.88;;;;;;;-149.78;100.00;50592.72;5061038;28;20541;-63
2022/01/16 07:06:35;;;;;;;29.40;12.93;;;;;;;-149.78;100.00;50573.16;5075125;28;20561;-63
2022/01/16 07:09:00;;;;;;;27.20;13.25;;;;;;;-149.78;100.00;50592.72;5074869;28;20036;-63
2022/01/16 07:11:26;;;;;;;25.40;13.15;;;;;;;-149.78;100.00;50588.78;5075010;28;20065;-63
2022/01/16 07:13:52;;;;;;;23.83;12.32;;;;;;;-149.78;100.00;50620.09;5074380;28;20082;-63
2022/01/16 07:16:17;;;;;;;27.38;13.13;;;;;;;-149.78;100.00;50612.25;5073864;28;20127;-63
2022/01/16 07:18:44;;;;;;;32.15;12.57;;;;;;;-149.78;100.00;50580.97;5071071;28;20550;-63
2022/01/16 07:21:13;;;;;;;27.25;12.90;;;;;;;-149.78;100.00;50600.53;5056985;28;20032;-63
2022/01/16 07:23:43;;;;;;;29.75;13.05;;;;;;;-149.78;100.00;50580.97;5074983;28;20075;-63
2022/01/16 07:26:09;;;;;;;29.75;12.82;;;;;;;-149.78;100.00;50592.72;5074676;28;20131;-63
2022/01/16 07:28:35;;;;;;;32.85;13.18;;;;;;;-149.78;100.00;50580.97;5074318;28;20526;-62
2022/01/16 07:31:01;;;;;;;31.13;13.73;;;;;;;-149.78;100.00;50616.19;5074671;28;20139;-63
2022/01/16 07:33:27;;;;;;;32.78;13.57;;;;;;;-149.78;100.00;50541.84;5061983;28;20361;-62
2022/01/16 07:35:52;;;;;;;28.48;13.05;;;;;;;-149.78;100.00;50590.75;5069598;28;20099;-63
2022/01/16 07:38:18;;;;;;;26.98;12.70;;;;;;;-149.78;100.00;50604.44;5041701;28;20029;-63
2022/01/16 07:40:44;;;;;;;28.80;13.00;;;;;;;-149.78;100.00;50588.78;5056607;28;20086;-63
2022/01/16 07:43:10;;;;;;;30.23;12.98;;;;;;;-149.78;100.00;50553.59;5069577;28;20380;-62
2022/01/16 07:45:37;;;;;;;30.63;12.15;;;;;;;-149.78;100.00;50604.44;5074164;28;20032;-62
2022/01/16 07:48:07;;;;;;;27.25;12.73;;;;;;;-149.78;100.00;50608.34;5064284;28;20055;-63
2022/01/16 07:50:33;;;;;;;28.20;12.40;;;;;;;-149.78;100.00;50569.22;5054962;28;20073;-63
2022/01/16 07:52:59;;;;;;;29.20;13.27;;;;;;;-149.78;100.00;50565.31;5070078;28;20111;-62
2022/01/16 07:55:26;;;;;;;28.42;12.82;;;;;;;-149.78;100.00;50573.16;5073372;28;20551;-63
2022/01/16 07:57:56;;;;;;;30.02;12.60;;;;;;;-149.78;100.00;50565.31;5073772;28;20119;-63
2022/01/16 08:00:24;;;;;;;29.25;11.85;;;;;;;-149.78;100.00;50537.94;5070473;28;20043;-63
2022/01/16 08:02:50;;;;;;;25.95;12.48;;;;;;;-149.78;100.00;50557.50;5063495;28;20051;-62
2022/01/16 08:05:17;;;;;;;25.48;12.43;;;;;;;-149.78;100.00;50580.97;5062550;28;20123;-62
2022/01/16 08:07:43;;;;;;;24.90;12.02;;;;;;;-149.78;100.00;50588.78;5059162;28;20386;-62
2022/01/16 08:10:10;;;;;;;26.77;12.48;;;;;;;-149.78;100.00;50541.84;5059585;28;20522;-62
2022/01/16 08:12:37;;;;;;;28.27;12.00;;;;;;;-149.78;100.00;50608.34;5052927;28;20032;-62
2022/01/16 08:15:05;;;;;;;28.20;12.18;;;;;;;-149.78;100.00;50586.84;5060499;28;20025;-62
2022/01/16 08:17:31;;;;;;;29.42;13.05;;;;;;;-149.78;100.00;50561.41;5052430;28;20091;-62
2022/01/16 08:19:56;;;;;;;29.20;13.45;;;;;;;-149.78;100.00;50579.00;5057719;28;20021;-62
2022/01/16 08:22:22;;;;;;;28.88;12.88;;;;;;;-149.78;100.00;50588.78;5058725;28;20438;-62
2022/01/16 08:24:48;;;;;;;29.67;12.73;;;;;;;-149.78;100.00;50565.31;5055365;28;20044;-62
2022/01/16 08:27:15;;;;;;;30.77;12.55;;;;;;;-149.78;100.00;50537.94;5058993;28;20040;-62
2022/01/16 08:29:44;;;;;;;30.05;12.55;;;;;;;-149.78;100.00;50561.41;5058819;28;20070;-61
2022/01/16 08:32:10;;;;;;;28.08;12.65;;;;;;;-149.78;100.00;50584.88;5058329;28;20098;-61
2022/01/16 08:34:36;;;;;;;27.95;11.02;;;;;;;-149.78;100.00;50596.63;5035976;28;20028;-61
2022/01/16 08:37:02;;;;;;;26.65;11.73;;;;;;;-149.78;100.00;50586.84;5057189;28;20407;-61
2022/01/16 08:39:28;;;;;;;29.05;11.85;;;;;;;-149.78;100.00;50565.31;5054938;28;20407;-61
2022/01/16 08:41:54;;;;;;;26.77;11.15;;;;;;;-149.78;100.00;50573.16;5053842;28;20040;-61
2022/01/16 08:44:19;;;;;;;25.77;11.27;;;;;;;-149.78;100.00;50565.31;5053408;28;20048;-62
2022/01/16 08:46:45;;;;;;;31.38;12.30;;;;;;;-149.78;100.00;50582.94;5059088;28;20040;-62
2022/01/16 08:49:11;;;;;;;25.23;11.43;;;;;;;-149.78;100.00;50545.75;5062533;28;20043;-62
2022/01/16 08:51:36;;;;;;;22.88;11.32;;;;;;;-149.78;100.00;50594.66;5065405;28;20037;-62
2022/01/16 08:54:02;;;;;;;25.73;11.55;;;;;;;-149.78;100.00;50579.00;5053925;28;20043;-61
2022/01/16 08:56:28;;;;;;;24.15;11.77;;;;;;;-149.78;100.00;50561.41;5064778;28;20128;-63
2022/01/16 08:58:54;;;;;;;28.45;10.88;;;;;;;-149.78;100.00;50526.22;5059649;28;20476;-62
2022/01/16 09:01:20;;;;;;;25.90;10.98;;;;;;;-149.78;100.00;50584.88;5057609;28;20049;-62
2022/01/16 09:03:47;;;;;;;26.92;10.30;;;;;;;-149.78;100.00;50563.38;5053692;28;20032;-62
2022/01/16 09:06:12;;;;;;;22.98;10.80;;;;;;;-149.78;100.00;50588.78;5053679;28;20028;-62
2022/01/16 09:08:39;;;;;;;27.02;10.82;;;;;;;-149.78;100.00;50555.53;5063612;28;20033;-62
2022/01/16 09:11:05;;;;;;;23.48;9.50;;;;;;;-149.78;100.00;50565.31;5071814;28;20040;-62
2022/01/16 09:13:31;;;;;;;22.73;10.30;;;;;;;-149.78;100.00;50588.78;5071090;28;20460;-62
2022/01/16 09:15:57;;;;;;;23.73;10.02;;;;;;;-149.78;100.00;50588.78;5062626;28;20415;-62
2022/01/16 09:18:22;;;;;;;22.70;10.15;;;;;;;-149.78;100.00;50534.03;5002600;28;20357;-62
2022/01/16 09:20:48;;;;;;;23.17;9.98;;;;;;;-149.78;100.00;50573.16;5051258;28;20054;-61
2022/01/16 09:23:14;;;;;;;25.77;9.93;;;;;;;-149.78;100.00;50592.72;5061761;28;20072;-62
2022/01/16 09:25:40;;;;;;;25.15;10.23;;;;;;;-149.78;100.00;50545.75;5063851;28;20071;-62
2022/01/16 09:28:06;;;;;;;21.70;9.18;;;;;;;-149.78;100.00;50586.84;5035026;28;20045;-63
2022/01/16 09:30:32;;;;;;;23.73;9.68;;;;;;;-149.78;100.00;50580.97;5041942;28;20042;-63
2022/01/16 09:32:58;;;;;;;22.13;9.70;;;;;;;-149.78;100.00;50547.72;5051910;28;20037;-62
2022/01/16 09:35:25;;;;;;;21.05;9.30;;;;;;;-149.78;100.00;50569.22;5051481;28;20472;-62
2022/01/16 09:37:53;;;;;;;23.92;10.25;;;;;;;-149.78;100.00;50537.94;5049350;28;20163;-62
2022/01/16 09:40:21;;;;;;;17.90;9.65;;;;;;;-149.78;100.00;50592.72;5032159;28;20462;-63
2022/01/16 09:42:47;;;;;;;23.20;9.05;;;;;;;-149.78;100.00;50573.16;5032380;28;20041;-63
2022/01/16 09:45:17;;;;;;;21.13;9.40;;;;;;;-149.78;100.00;50555.53;5040493;28;20036;-62
2022/01/16 09:47:44;;;;;;;21.20;9.02;;;;;;;-149.78;100.00;50557.50;5052186;28;20068;-63
2022/01/16 09:50:11;;;;;;;21.52;9.32;;;;;;;-149.78;100.00;50537.94;5052106;28;20400;-63
2022/01/16 09:52:42;;;;;;;18.25;8.60;;;;;;;-149.78;100.00;50592.72;5051883;28;20033;-63
2022/01/16 09:55:09;;;;;;;20.23;8.23;;;;;;;-149.78;100.00;50573.16;5051165;28;20132;-63
2022/01/16 09:57:35;;;;;;;19.65;7.13;;;;;;;-149.78;100.00;50530.13;5052592;28;20037;-63
2022/01/16 10:00:07;;;;;;;25.45;8.30;;;;;;;-149.78;100.00;50557.50;5052402;28;20029;-63
2022/01/16 10:02:32;;;;;;;20.30;7.82;;;;;;;-149.78;100.00;50575.09;5052559;28;20078;-63
2022/01/16 10:04:58;;;;;;;15.75;7.90;;;;;;;-149.78;100.00;50573.16;5051160;28;20037;-63
2022/01/16 10:07:23;;;;;;;20.98;8.43;;;;;;;-149.78;100.00;50541.84;5034546;28;20036;-63
2022/01/16 10:10:11;;;;;;;15.10;7.72;;;;;;;-149.78;100.00;50557.50;5052077;28;20064;-63
2022/01/16 10:12:51;;;;;;;20.20;7.63;;;;;;;-149.78;100.00;50537.94;5052318;28;20384;-63
2022/01/16 10:15:21;;;;;;;19.70;7.70;;;;;;;-149.78;100.00;50573.16;5052199;28;20123;-63
2022/01/16 10:17:50;;;;;;;14.85;6.65;;;;;;;-149.78;100.00;50553.59;5052244;28;20029;-63
2022/01/16 10:20:17;;;;;;;14.55;7.13;;;;;;;-149.78;100.00;50596.63;5052311;28;20036;-63
2022/01/16 10:22:50;;;;;;;15.27;7.68;;;;;;;-149.78;100.00;50561.41;5052664;28;20033;-63
2022/01/16 10:25:35;;;;;;;16.77;7.90;;;;;;;-149.78;100.00;50561.41;5052355;28;20032;-63
2022/01/16 10:28:04;;;;;;;17.38;7.10;;;;;;;-149.78;100.00;50584.88;5051989;28;20032;-63
2022/01/16 10:30:41;;;;;;;16.75;7.88;;;;;;;-149.78;100.00;50586.84;5058780;28;20044;-63
2022/01/16 10:33:15;;;;;;;15.15;7.43;;;;;;;-149.78;100.00;50518.38;5075794;28;20040;-63
2022/01/16 10:35:43;;;;;;;25.35;10.20;;;;;;;-149.78;100.00;50510.56;5075959;28;20087;-63
2022/01/16 10:38:16;;;;;;;20.73;7.55;;;;;;;-149.78;100.00;50565.31;5076089;28;20367;-63
2022/01/16 10:40:44;;;;;;;14.35;7.72;;;;;;;-149.78;100.00;50545.75;5056453;28;20112;-63
2022/01/16 10:43:13;;;;;;;17.77;7.93;;;;;;;-149.78;100.00;50543.81;5075699;28;20040;-63
2022/01/16 10:45:41;;;;;;;15.45;7.75;;;;;;;-149.78;100.00;50539.91;5075522;28;20075;-63
2022/01/16 10:48:07;;;;;;;15.60;7.88;;;;;;;-149.78;100.00;50557.50;5075479;28;20089;-63
2022/01/16 10:50:34;;;;;;;17.40;7.75;;;;;;;-149.78;100.00;50522.28;5075266;28;20136;-63
2022/01/16 10:53:12;;;;;;;18.63;7.47;;;;;;;-149.78;100.00;50551.63;5075205;28;20123;-64
2022/01/16 10:55:46;;;;;;;17.67;7.28;;;;;;;-149.78;100.00;50565.31;5075048;28;20119;-64
2022/01/16 10:58:15;;;;;;;16.15;7.30;;;;;;;-149.78;100.00;50557.50;5075029;28;20078;-65
2022/01/16 11:00:46;;;;;;;17.65;7.70;;;;;;;-149.78;100.00;50577.06;5074839;28;20459;-64
2022/01/16 11:03:13;;;;;;;14.13;7.38;;;;;;;-149.78;100.00;50512.50;5074908;28;20028;-63
2022/01/16 11:05:43;;;;;;;20.67;8.80;;;;;;;-149.78;100.00;50539.91;5073740;28;20380;-64
2022/01/16 11:08:13;;;;;;;16.15;8.07;;;;;;;-149.78;100.00;50553.59;5074665;28;20036;-63
2022/01/16 11:10:51;;;;;;;18.08;8.18;;;;;;;-149.78;100.00;50549.69;5074574;28;20032;-63
2022/01/16 11:13:19;;;;;;;16.48;7.72;;;;;;;-149.78;100.00;50537.94;5074674;28;20105;-63
2022/01/16 11:15:48;;;;;;;16.92;8.05;;;;;;;-149.78;100.00;50545.75;5074771;28;20059;-63
2022/01/16 11:18:14;;;;;;;16.13;7.43;;;;;;;-149.78;100.00;50553.59;5074001;28;20119;-63
2022/01/16 11:20:44;;;;;;;15.55;7.68;;;;;;;-149.78;100.00;50522.28;5074680;28;20035;-63
2022/01/16 11:23:16;;;;;;;14.50;6.70;;;;;;;-149.78;100.00;50530.13;5074634;28;20032;-63
2022/01/16 11:25:43;;;;;;;15.15;7.45;;;;;;;-149.78;100.00;50537.94;5074315;28;20067;-63
2022/01/16 11:28:15;;;;;;;12.82;6.75;;;;;;;-149.78;100.00;50571.19;5074311;28;20045;-63
2022/01/16 11:30:52;;;;;;;15.93;7.03;;;;;;;-149.78;100.00;50528.16;5074279;28;20040;-63
2022/01/16 11:33:21;;;;;;;14.65;6.95;;;;;;;-149.78;100.00;50526.22;5074377;28;20487;-63
2022/01/16 11:35:56;;;;;;;15.35;6.63;;;;;;;-149.78;100.00;50545.75;5074190;28;20040;-63
2022/01/16 11:38:28;;;;;;;12.38;6.95;;;;;;;-149.78;100.00;50522.28;5074304;28;20032;-63
2022/01/16 11:40:54;;;;;;;13.43;6.47;;;;;;;-149.78;100.00;50553.59;5074388;28;20111;-63
2022/01/16 11:43:23;;;;;;;15.38;6.50;;;;;;;-149.78;100.00;50537.94;5074520;28;20348;-63